Time,TemperatureF,DewpointF,PressureIn,WindDirection,WindDirectionDegrees,WindSpeedMPH,WindSpeedGustMPH,Humidity,HourlyPrecipIn,Conditions,Clouds,dailyrainin,SoftwareType,DateUTC
2013-03-15 00:04:00,25.9,17.4,29.86,NE,45,4.0,4.0,70,0.00,,,0.00,meteohub,2013-03-15 05:04:00,
2013-03-15 00:09:00,26.1,17.6,29.85,NE,45,4.0,4.0,70,0.00,,,0.00,meteohub,2013-03-15 05:09:00,
2013-03-15 00:14:00,26.1,17.6,29.85,NE,45,4.0,4.0,70,0.00,,,0.00,meteohub,2013-03-15 05:14:00,
2013-03-15 00:19:00,25.5,17.1,29.85,NE,45,3.0,4.0,70,0.00,,,0.00,meteohub,2013-03-15 05:19:00,
2013-03-15 00:25:00,25.3,16.9,29.85,East,90,0.0,4.0,70,0.00,,,0.00,meteohub,2013-03-15 05:25:00,
2013-03-15 00:30:00,25.5,17.1,29.85,SE,135,0.0,4.0,70,0.00,,,0.00,meteohub,2013-03-15 05:30:00,
2013-03-15 00:35:00,25.7,17.2,29.84,NE,45,0.0,3.0,70,0.00,,,0.00,meteohub,2013-03-15 05:35:00,
2013-03-15 00:40:00,25.9,17.4,29.85,NE,45,0.0,0.0,70,0.00,,,0.00,meteohub,2013-03-15 05:40:00,
2013-03-15 00:46:00,26.1,17.6,29.86,NW,315,0.0,0.0,70,0.00,,,0.00,meteohub,2013-03-15 05:46:00,
2013-03-15 00:52:00,26.2,17.8,29.86,West,270,5.0,5.0,70,0.00,,,0.00,meteohub,2013-03-15 05:52:00,
2013-03-15 00:57:00,27.1,18.7,29.86,NW,315,6.0,6.0,70,0.00,,,0.00,meteohub,2013-03-15 05:57:00,
2013-03-15 01:02:00,28.0,19.6,29.87,NW,315,4.0,6.0,70,0.00,,,0.00,meteohub,2013-03-15 06:02:00,
2013-03-15 01:07:00,28.4,21.6,29.86,NNW,338,6.0,6.0,75,0.00,,,0.00,meteohub,2013-03-15 06:07:00,
2013-03-15 01:12:00,28.6,21.7,29.87,NW,315,6.0,6.0,75,0.00,,,0.00,meteohub,2013-03-15 06:12:00,
2013-03-15 01:17:00,28.4,21.6,29.87,North,0,8.0,8.0,75,0.00,,,0.00,meteohub,2013-03-15 06:17:00,
2013-03-15 01:22:00,28.6,21.7,29.87,NW,315,7.0,8.0,75,0.00,,,0.00,meteohub,2013-03-15 06:22:00,
2013-03-15 01:27:00,28.6,21.9,29.87,North,0,6.0,8.0,76,0.00,,,0.00,meteohub,2013-03-15 06:27:00,
2013-03-15 01:33:00,28.4,21.7,29.87,NW,315,5.0,8.0,76,0.00,,,0.00,meteohub,2013-03-15 06:33:00,
2013-03-15 01:38:00,28.6,21.9,29.86,NW,315,5.0,8.0,76,0.00,,,0.00,meteohub,2013-03-15 06:38:00,
2013-03-15 01:43:00,28.8,22.1,29.86,North,0,4.0,7.0,76,0.00,,,0.00,meteohub,2013-03-15 06:43:00,
2013-03-15 01:48:00,28.9,22.6,29.86,North,0,4.0,7.0,77,0.00,,,0.00,meteohub,2013-03-15 06:48:00,
2013-03-15 01:53:00,28.9,22.6,29.87,NW,315,7.0,7.0,77,0.00,,,0.00,meteohub,2013-03-15 06:53:00,
2013-03-15 01:59:00,29.3,23.0,29.86,North,0,7.0,7.0,77,0.00,,,0.00,meteohub,2013-03-15 06:59:00,
2013-03-15 02:04:00,29.3,23.0,29.87,NNW,338,9.0,9.0,77,0.00,,,0.00,meteohub,2013-03-15 07:04:00,
2013-03-15 02:09:00,29.5,23.2,29.86,North,0,7.0,9.0,77,0.00,,,0.00,meteohub,2013-03-15 07:09:00,
2013-03-15 02:14:00,29.5,23.2,29.86,North,0,8.0,9.0,77,0.00,,,0.00,meteohub,2013-03-15 07:14:00,
2013-03-15 02:19:00,29.5,23.2,29.86,North,0,8.0,9.0,77,0.00,,,0.00,meteohub,2013-03-15 07:19:00,
2013-03-15 02:24:00,29.7,23.4,29.87,North,0,8.0,9.0,77,0.00,,,0.00,meteohub,2013-03-15 07:24:00,
2013-03-15 02:29:00,29.8,23.5,29.86,North,0,8.0,9.0,77,0.00,,,0.00,meteohub,2013-03-15 07:29:00,
2013-03-15 02:34:00,30.0,23.7,29.86,North,0,8.0,9.0,77,0.00,,,0.00,meteohub,2013-03-15 07:34:00,
2013-03-15 02:40:00,30.0,23.7,29.86,NW,315,8.0,8.0,77,0.00,,,0.00,meteohub,2013-03-15 07:40:00,
2013-03-15 02:45:00,30.2,23.5,29.87,North,0,11.0,12.0,76,0.00,,,0.00,meteohub,2013-03-15 07:45:00,
2013-03-15 02:50:00,30.2,23.5,29.87,NW,315,12.0,13.0,76,0.00,,,0.00,meteohub,2013-03-15 07:50:00,
2013-03-15 02:55:00,30.2,23.5,29.87,NW,315,16.0,16.0,76,0.00,,,0.00,meteohub,2013-03-15 07:55:00,
2013-03-15 03:01:00,30.6,24.3,29.87,NW,315,17.0,17.0,77,0.00,,,0.00,meteohub,2013-03-15 08:01:00,
2013-03-15 03:06:00,30.6,24.3,29.87,North,0,18.0,18.0,77,0.00,,,0.00,meteohub,2013-03-15 08:06:00,
2013-03-15 03:11:00,30.7,24.1,29.86,North,0,15.0,18.0,76,0.00,,,0.00,meteohub,2013-03-15 08:11:00,
2013-03-15 03:16:00,30.7,24.1,29.86,North,0,15.0,18.0,76,0.00,,,0.00,meteohub,2013-03-15 08:16:00,
2013-03-15 03:22:00,30.6,23.9,29.86,North,0,11.0,18.0,76,0.00,,,0.00,meteohub,2013-03-15 08:22:00,
2013-03-15 03:27:00,30.6,23.9,29.86,North,0,14.0,16.0,76,0.00,,,0.00,meteohub,2013-03-15 08:27:00,
2013-03-15 03:32:00,30.4,23.7,29.85,North,0,13.0,16.0,76,0.00,,,0.00,meteohub,2013-03-15 08:32:00,
2013-03-15 03:38:00,30.2,23.5,29.85,North,0,12.0,16.0,76,0.00,,,0.00,meteohub,2013-03-15 08:38:00,
2013-03-15 03:43:00,30.2,23.5,29.85,North,0,11.0,16.0,76,0.00,,,0.00,meteohub,2013-03-15 08:43:00,
2013-03-15 03:48:00,30.4,23.7,29.85,North,0,11.0,15.0,76,0.00,,,0.00,meteohub,2013-03-15 08:48:00,
2013-03-15 03:54:00,30.4,23.7,29.86,NW,315,10.0,13.0,76,0.00,,,0.00,meteohub,2013-03-15 08:54:00,
2013-03-15 03:59:00,30.6,23.9,29.86,West,270,8.0,12.0,76,0.00,,,0.00,meteohub,2013-03-15 08:59:00,
2013-03-15 04:04:00,30.4,23.7,29.86,NW,315,8.0,11.0,76,0.00,,,0.00,meteohub,2013-03-15 09:04:00,
2013-03-15 04:09:00,30.2,23.5,29.86,West,270,8.0,11.0,76,0.00,,,0.00,meteohub,2013-03-15 09:09:00,
2013-03-15 04:14:00,30.2,23.5,29.86,West,270,12.0,12.0,76,0.00,,,0.00,meteohub,2013-03-15 09:14:00,
2013-03-15 04:19:00,30.2,23.5,29.86,West,270,11.0,11.0,76,0.00,,,0.00,meteohub,2013-03-15 09:19:00,
2013-03-15 04:24:00,30.2,23.5,29.86,West,270,14.0,14.0,76,0.00,,,0.00,meteohub,2013-03-15 09:24:00,
2013-03-15 04:29:00,30.2,23.5,29.86,NW,315,10.0,15.0,76,0.00,,,0.00,meteohub,2013-03-15 09:29:00,
2013-03-15 04:35:00,30.2,23.5,29.86,NW,315,11.0,15.0,76,0.00,,,0.00,meteohub,2013-03-15 09:35:00,
2013-03-15 04:40:00,30.2,23.5,29.85,West,270,11.0,15.0,76,0.00,,,0.00,meteohub,2013-03-15 09:40:00,
2013-03-15 04:45:00,30.2,23.5,29.85,West,270,11.0,15.0,76,0.00,,,0.00,meteohub,2013-03-15 09:45:00,
2013-03-15 04:50:00,30.2,23.9,29.86,NW,315,12.0,12.0,77,0.00,,,0.00,meteohub,2013-03-15 09:50:00,
2013-03-15 04:55:00,30.0,24.1,29.85,WNW,293,11.0,11.0,78,0.00,,,0.00,meteohub,2013-03-15 09:55:00,
2013-03-15 05:00:00,30.0,24.1,29.84,NW,315,11.0,12.0,78,0.00,,,0.00,meteohub,2013-03-15 10:00:00,
2013-03-15 05:05:00,30.0,24.1,29.83,NW,315,10.0,12.0,78,0.00,,,0.00,meteohub,2013-03-15 10:05:00,
2013-03-15 05:10:00,30.0,24.1,29.83,NW,315,10.0,11.0,78,0.00,,,0.00,meteohub,2013-03-15 10:10:00,
2013-03-15 05:16:00,30.0,24.1,29.82,North,0,9.0,11.0,78,0.00,,,0.00,meteohub,2013-03-15 10:16:00,
2013-03-15 05:21:00,30.0,24.1,29.82,North,0,8.0,11.0,78,0.00,,,0.00,meteohub,2013-03-15 10:21:00,
2013-03-15 05:26:00,30.0,24.1,29.81,North,0,8.0,10.0,78,0.00,,,0.00,meteohub,2013-03-15 10:26:00,
2013-03-15 05:32:00,30.0,24.1,29.82,North,0,8.0,9.0,78,0.00,,,0.00,meteohub,2013-03-15 10:32:00,
2013-03-15 05:37:00,29.8,23.9,29.81,North,0,7.0,9.0,78,0.00,,,0.00,meteohub,2013-03-15 10:37:00,
2013-03-15 05:42:00,29.8,23.9,29.81,North,0,8.0,9.0,78,0.00,,,0.00,meteohub,2013-03-15 10:42:00,
2013-03-15 05:47:00,29.8,23.9,29.80,NE,45,9.0,9.0,78,0.00,,,0.00,meteohub,2013-03-15 10:47:00,
2013-03-15 05:53:00,30.0,24.1,29.80,NE,45,13.0,13.0,78,0.00,,,0.00,meteohub,2013-03-15 10:53:00,
2013-03-15 05:58:00,30.0,24.1,29.79,NE,45,13.0,13.0,78,0.00,,,0.00,meteohub,2013-03-15 10:58:00,
2013-03-15 06:03:00,30.0,24.3,29.79,NE,45,14.0,14.0,79,0.00,,,0.00,meteohub,2013-03-15 11:03:00,
2013-03-15 06:08:00,30.0,24.3,29.80,NNE,23,11.0,15.0,79,0.00,,,0.00,meteohub,2013-03-15 11:08:00,
2013-03-15 06:13:00,30.0,24.3,29.80,NE,45,11.0,15.0,79,0.00,,,0.00,meteohub,2013-03-15 11:13:00,
2013-03-15 06:19:00,30.0,24.3,29.81,NW,315,8.0,15.0,79,0.00,,,0.00,meteohub,2013-03-15 11:19:00,
2013-03-15 06:24:00,30.2,24.3,29.81,NW,315,8.0,15.0,78,0.00,,,0.00,meteohub,2013-03-15 11:24:00,
2013-03-15 06:29:00,30.2,24.3,29.81,NW,315,5.0,12.0,78,0.00,,,0.00,meteohub,2013-03-15 11:29:00,
2013-03-15 06:34:00,30.4,24.3,29.81,North,0,7.0,8.0,78,0.00,,,0.00,meteohub,2013-03-15 11:34:00,
2013-03-15 06:40:00,30.2,24.3,29.81,North,0,6.0,8.0,78,0.00,,,0.00,meteohub,2013-03-15 11:40:00,
2013-03-15 06:45:00,30.4,24.3,29.81,North,0,6.0,8.0,78,0.00,,,0.00,meteohub,2013-03-15 11:45:00,
2013-03-15 06:50:00,30.2,24.3,29.81,North,0,7.0,8.0,78,0.00,,,0.00,meteohub,2013-03-15 11:50:00,
2013-03-15 06:55:00,30.2,24.3,29.81,North,0,7.0,8.0,78,0.00,,,0.00,meteohub,2013-03-15 11:55:00,
2013-03-15 07:00:00,30.2,24.3,29.81,North,0,7.0,7.0,78,0.00,,,0.00,meteohub,2013-03-15 12:00:00,
2013-03-15 07:05:00,30.2,24.3,29.81,North,0,7.0,8.0,78,0.00,,,0.00,meteohub,2013-03-15 12:05:00,
2013-03-15 07:10:00,30.2,24.3,29.81,WSW,248,7.0,8.0,78,0.00,,,0.00,meteohub,2013-03-15 12:10:00,
2013-03-15 07:15:00,30.2,24.3,29.81,North,0,8.0,8.0,78,0.00,,,0.00,meteohub,2013-03-15 12:15:00,
2013-03-15 07:20:00,30.2,24.3,29.81,North,0,8.0,8.0,78,0.00,,,0.00,meteohub,2013-03-15 12:20:00,
2013-03-15 07:26:00,30.2,24.3,29.80,NE,45,7.0,8.0,78,0.00,,,0.00,meteohub,2013-03-15 12:26:00,
2013-03-15 07:31:00,30.2,24.3,29.80,NNE,23,7.0,8.0,78,0.00,,,0.00,meteohub,2013-03-15 12:31:00,
2013-03-15 07:37:00,30.2,24.3,29.80,NE,45,8.0,8.0,78,0.00,,,0.00,meteohub,2013-03-15 12:37:00,
2013-03-15 07:42:00,30.2,24.3,29.79,NE,45,10.0,10.0,78,0.00,,,0.00,meteohub,2013-03-15 12:42:00,
2013-03-15 07:47:00,30.4,24.3,29.79,NE,45,9.0,10.0,78,0.00,,,0.00,meteohub,2013-03-15 12:47:00,
2013-03-15 07:52:00,30.4,24.3,29.80,NNE,23,9.0,10.0,78,0.00,,,0.00,meteohub,2013-03-15 12:52:00,
2013-03-15 07:57:00,30.4,24.6,29.80,NE,45,11.0,11.0,79,0.00,,,0.00,meteohub,2013-03-15 12:57:00,
2013-03-15 08:02:00,30.4,24.6,29.79,NE,45,13.0,13.0,79,0.00,,,0.00,meteohub,2013-03-15 13:02:00,
2013-03-15 08:07:00,30.4,24.6,29.79,NNE,23,11.0,13.0,79,0.00,,,0.00,meteohub,2013-03-15 13:07:00,
2013-03-15 08:13:00,30.6,24.8,29.79,NE,45,11.0,14.0,79,0.00,,,0.00,meteohub,2013-03-15 13:13:00,
2013-03-15 08:18:00,30.6,24.8,29.78,NNE,23,12.0,14.0,79,0.00,,,0.00,meteohub,2013-03-15 13:18:00,
2013-03-15 08:23:00,30.7,25.0,29.78,NE,45,15.0,15.0,79,0.00,,,0.00,meteohub,2013-03-15 13:23:00,
2013-03-15 08:28:00,30.7,25.0,29.79,NE,45,15.0,16.0,79,0.00,,,0.00,meteohub,2013-03-15 13:28:00,
2013-03-15 08:33:00,30.9,25.2,29.79,NE,45,16.0,16.0,79,0.00,,,0.00,meteohub,2013-03-15 13:33:00,
2013-03-15 08:39:00,30.9,25.2,29.79,NE,45,11.0,16.0,79,0.00,,,0.00,meteohub,2013-03-15 13:39:00,
2013-03-15 08:44:00,31.1,25.0,29.80,NE,45,11.0,16.0,78,0.00,,,0.00,meteohub,2013-03-15 13:44:00,
2013-03-15 08:49:00,31.3,25.2,29.79,NE,45,13.0,16.0,78,0.00,,,0.00,meteohub,2013-03-15 13:49:00,
2013-03-15 08:54:00,31.3,25.2,29.80,NE,45,11.0,14.0,78,0.00,,,0.00,meteohub,2013-03-15 13:54:00,
2013-03-15 08:59:00,31.5,25.3,29.80,NE,45,11.0,14.0,78,0.00,,,0.00,meteohub,2013-03-15 13:59:00,
2013-03-15 09:05:00,31.5,25.3,29.80,NE,45,12.0,14.0,78,0.00,,,0.00,meteohub,2013-03-15 14:05:00,
2013-03-15 09:10:00,31.6,25.5,29.80,NE,45,14.0,14.0,78,0.00,,,0.00,meteohub,2013-03-15 14:10:00,
2013-03-15 09:15:00,31.6,25.5,29.80,NE,45,12.0,14.0,78,0.00,,,0.00,meteohub,2013-03-15 14:15:00,
2013-03-15 09:20:00,31.8,25.7,29.80,NE,45,10.0,15.0,78,0.00,,,0.00,meteohub,2013-03-15 14:20:00,
2013-03-15 09:25:00,31.8,25.7,29.80,NE,45,7.0,15.0,78,0.00,,,0.00,meteohub,2013-03-15 14:25:00,
2013-03-15 09:31:00,31.8,26.1,29.79,NE,45,10.0,13.0,79,0.00,,,0.00,meteohub,2013-03-15 14:31:00,
2013-03-15 09:36:00,31.8,26.1,29.79,NE,45,11.0,13.0,79,0.00,,,0.00,meteohub,2013-03-15 14:36:00,
2013-03-15 09:41:00,32.0,25.9,29.80,NE,45,8.0,13.0,78,0.00,,,0.00,meteohub,2013-03-15 14:41:00,
2013-03-15 09:47:00,32.0,25.9,29.78,NE,45,9.0,13.0,78,0.00,,,0.00,meteohub,2013-03-15 14:47:00,
2013-03-15 09:52:00,32.2,26.1,29.79,NE,45,10.0,12.0,78,0.00,,,0.00,meteohub,2013-03-15 14:52:00,
2013-03-15 09:57:00,32.2,26.1,29.79,East,90,11.0,11.0,78,0.00,,,0.00,meteohub,2013-03-15 14:57:00,
2013-03-15 10:02:00,32.2,26.1,29.78,NE,45,14.0,14.0,78,0.00,,,0.00,meteohub,2013-03-15 15:02:00,
2013-03-15 10:07:00,32.2,26.1,29.78,NE,45,17.0,17.0,78,0.00,,,0.00,meteohub,2013-03-15 15:07:00,
2013-03-15 10:13:00,32.4,26.2,29.79,East,90,11.0,17.0,78,0.00,,,0.00,meteohub,2013-03-15 15:13:00,
2013-03-15 10:18:00,32.4,26.2,29.80,NE,45,10.0,17.0,78,0.00,,,0.00,meteohub,2013-03-15 15:18:00,
2013-03-15 10:23:00,32.4,26.2,29.80,NE,45,14.0,17.0,78,0.00,,,0.00,meteohub,2013-03-15 15:23:00,
2013-03-15 10:28:00,32.4,26.2,29.81,NE,45,9.0,14.0,78,0.00,,,0.00,meteohub,2013-03-15 15:28:00,
2013-03-15 10:34:00,32.4,26.2,29.80,NE,45,12.0,14.0,78,0.00,,,0.00,meteohub,2013-03-15 15:34:00,
2013-03-15 10:39:00,32.4,26.2,29.81,NE,45,11.0,14.0,78,0.00,,,0.00,meteohub,2013-03-15 15:39:00,
2013-03-15 10:44:00,32.5,26.4,29.81,NE,45,9.0,14.0,78,0.00,,,0.00,meteohub,2013-03-15 15:44:00,
2013-03-15 10:49:00,32.5,26.4,29.80,NNE,23,13.0,14.0,78,0.00,,,0.00,meteohub,2013-03-15 15:49:00,
2013-03-15 10:55:00,32.5,26.4,29.81,NE,45,11.0,14.0,78,0.00,,,0.00,meteohub,2013-03-15 15:55:00,
2013-03-15 11:00:00,32.5,26.4,29.81,NE,45,12.0,14.0,78,0.00,,,0.00,meteohub,2013-03-15 16:00:00,
2013-03-15 11:05:00,32.5,26.4,29.81,NE,45,11.0,15.0,78,0.00,,,0.00,meteohub,2013-03-15 16:05:00,
2013-03-15 11:10:00,32.5,26.4,29.80,NE,45,11.0,15.0,78,0.00,,,0.00,meteohub,2013-03-15 16:10:00,
2013-03-15 11:15:00,32.5,26.1,29.79,East,90,10.0,12.0,77,0.00,,,0.00,meteohub,2013-03-15 16:15:00,
2013-03-15 11:21:00,32.7,26.2,29.80,NE,45,11.0,13.0,77,0.00,,,0.00,meteohub,2013-03-15 16:21:00,
2013-03-15 11:26:00,32.7,26.2,29.81,NE,45,11.0,13.0,77,0.00,,,0.00,meteohub,2013-03-15 16:26:00,
2013-03-15 11:31:00,32.7,26.2,29.81,NE,45,11.0,13.0,77,0.00,,,0.00,meteohub,2013-03-15 16:31:00,
2013-03-15 11:36:00,32.7,26.2,29.80,NE,45,11.0,12.0,77,0.00,,,0.00,meteohub,2013-03-15 16:36:00,
2013-03-15 11:42:00,32.7,26.2,29.81,NE,45,15.0,15.0,77,0.00,,,0.00,meteohub,2013-03-15 16:42:00,
2013-03-15 11:47:00,32.7,26.2,29.80,ENE,68,15.0,15.0,77,0.00,,,0.00,meteohub,2013-03-15 16:47:00,
2013-03-15 11:52:00,32.7,26.2,29.78,East,90,13.0,15.0,77,0.00,,,0.00,meteohub,2013-03-15 16:52:00,
2013-03-15 11:57:00,32.9,26.4,29.78,NE,45,13.0,15.0,77,0.00,,,0.00,meteohub,2013-03-15 16:57:00,
2013-03-15 12:02:00,32.9,26.4,29.79,NE,45,17.0,17.0,77,0.00,,,0.00,meteohub,2013-03-15 17:02:00,
2013-03-15 12:07:00,32.9,26.4,29.79,NE,45,10.0,17.0,77,0.00,,,0.00,meteohub,2013-03-15 17:07:00,
2013-03-15 12:13:00,33.1,26.6,29.78,NE,45,13.0,17.0,77,0.00,,,0.00,meteohub,2013-03-15 17:13:00,
2013-03-15 12:18:00,33.3,26.6,29.79,East,90,15.0,17.0,76,0.00,,,0.00,meteohub,2013-03-15 17:18:00,
2013-03-15 12:23:00,33.3,26.6,29.80,East,90,9.0,15.0,76,0.00,,,0.00,meteohub,2013-03-15 17:23:00,
2013-03-15 12:28:00,33.3,26.6,29.81,NE,45,10.0,15.0,76,0.00,,,0.00,meteohub,2013-03-15 17:28:00,
2013-03-15 12:31:00,33.3,26.6,29.80,NE,45,10.0,15.0,76,0.00,,,0.00,meteohub,2013-03-15 17:31:00,
2013-03-15 12:42:00,33.4,26.4,29.79,East,90,11.0,15.0,75,0.00,,,0.00,meteohub,2013-03-15 17:42:00,
2013-03-15 12:47:00,33.6,26.6,29.79,ENE,68,12.0,14.0,75,0.00,,,0.00,meteohub,2013-03-15 17:47:00,
2013-03-15 12:52:00,33.4,26.4,29.79,NE,45,9.0,16.0,75,0.00,,,0.00,meteohub,2013-03-15 17:52:00,
2013-03-15 12:57:00,33.6,26.6,29.79,NE,45,14.0,16.0,75,0.00,,,0.00,meteohub,2013-03-15 17:57:00,
2013-03-15 13:03:00,33.3,26.2,29.79,NE,45,11.0,16.0,75,0.00,,,0.00,meteohub,2013-03-15 18:03:00,
2013-03-15 13:08:00,33.4,26.4,29.78,NE,45,15.0,15.0,75,0.00,,,0.00,meteohub,2013-03-15 18:08:00,
2013-03-15 13:13:00,33.3,26.2,29.78,NE,45,15.0,15.0,75,0.00,,,0.00,meteohub,2013-03-15 18:13:00,
2013-03-15 13:18:00,33.3,26.2,29.78,NE,45,15.0,16.0,75,0.00,,,0.00,meteohub,2013-03-15 18:18:00,
2013-03-15 13:23:00,33.3,26.2,29.78,NE,45,15.0,17.0,75,0.00,,,0.00,meteohub,2013-03-15 18:23:00,
2013-03-15 13:29:00,33.3,26.2,29.78,NE,45,14.0,17.0,75,0.00,,,0.00,meteohub,2013-03-15 18:29:00,
2013-03-15 13:34:00,33.3,26.2,29.78,NE,45,15.0,17.0,75,0.00,,,0.00,meteohub,2013-03-15 18:34:00,
2013-03-15 13:39:00,33.3,26.2,29.78,NE,45,13.0,16.0,75,0.00,,,0.00,meteohub,2013-03-15 18:39:00,
2013-03-15 13:44:00,33.3,26.2,29.77,NE,45,13.0,16.0,75,0.00,,,0.00,meteohub,2013-03-15 18:44:00,
2013-03-15 13:49:00,33.3,26.2,29.77,NE,45,13.0,15.0,75,0.00,,,0.00,meteohub,2013-03-15 18:49:00,
2013-03-15 13:54:00,33.3,26.2,29.76,ENE,68,12.0,15.0,75,0.00,,,0.00,meteohub,2013-03-15 18:54:00,
2013-03-15 14:00:00,33.3,26.2,29.76,NE,45,12.0,15.0,75,0.00,,,0.00,meteohub,2013-03-15 19:00:00,
2013-03-15 14:05:00,33.4,26.4,29.75,NE,45,14.0,15.0,75,0.00,,,0.00,meteohub,2013-03-15 19:05:00,
2013-03-15 14:10:00,33.6,26.6,29.76,NE,45,15.0,16.0,75,0.00,,,0.00,meteohub,2013-03-15 19:10:00,
2013-03-15 14:15:00,33.4,26.4,29.75,SE,135,11.0,16.0,75,0.00,,,0.00,meteohub,2013-03-15 19:15:00,
2013-03-15 14:20:00,33.6,26.6,29.75,NE,45,14.0,16.0,75,0.00,,,0.00,meteohub,2013-03-15 19:20:00,
2013-03-15 14:26:00,33.6,26.6,29.75,NE,45,11.0,16.0,75,0.00,,,0.00,meteohub,2013-03-15 19:26:00,
2013-03-15 14:31:00,33.6,26.6,29.75,ENE,68,17.0,17.0,75,0.00,,,0.00,meteohub,2013-03-15 19:31:00,
2013-03-15 14:37:00,33.6,26.6,29.75,NE,45,16.0,17.0,75,0.00,,,0.00,meteohub,2013-03-15 19:37:00,
2013-03-15 14:42:00,33.4,26.4,29.74,NE,45,17.0,17.0,75,0.00,,,0.00,meteohub,2013-03-15 19:42:00,
2013-03-15 14:47:00,33.3,26.2,29.74,NE,45,16.0,20.0,75,0.00,,,0.00,meteohub,2013-03-15 19:47:00,
2013-03-15 14:52:00,33.3,26.2,29.75,NE,45,16.0,20.0,75,0.00,,,0.00,meteohub,2013-03-15 19:52:00,
2013-03-15 14:57:00,33.1,26.1,29.75,NE,45,17.0,18.0,75,0.00,,,0.00,meteohub,2013-03-15 19:57:00,
2013-03-15 15:02:00,33.3,26.2,29.75,NE,45,15.0,20.0,75,0.00,,,0.00,meteohub,2013-03-15 20:02:00,
2013-03-15 15:08:00,33.3,26.2,29.75,NE,45,14.0,20.0,75,0.00,,,0.00,meteohub,2013-03-15 20:08:00,
2013-03-15 15:13:00,33.3,26.2,29.75,NE,45,13.0,20.0,75,0.00,,,0.00,meteohub,2013-03-15 20:13:00,
2013-03-15 15:18:00,33.3,26.2,29.75,NE,45,14.0,17.0,75,0.00,,,0.00,meteohub,2013-03-15 20:18:00,
2013-03-15 15:24:00,33.3,26.2,29.74,NE,45,11.0,17.0,75,0.00,,,0.00,meteohub,2013-03-15 20:24:00,
2013-03-15 15:29:00,33.3,26.2,29.74,ENE,68,15.0,17.0,75,0.00,,,0.00,meteohub,2013-03-15 20:29:00,
2013-03-15 15:34:00,33.3,26.2,29.74,NE,45,12.0,17.0,75,0.00,,,0.00,meteohub,2013-03-15 20:34:00,
2013-03-15 15:39:00,33.3,26.2,29.73,East,90,13.0,17.0,75,0.00,,,0.00,meteohub,2013-03-15 20:39:00,
2013-03-15 15:45:00,33.3,26.2,29.73,NE,45,15.0,17.0,75,0.00,,,0.00,meteohub,2013-03-15 20:45:00,
2013-03-15 15:50:00,33.3,26.6,29.73,NE,45,16.0,17.0,76,0.00,,,0.00,meteohub,2013-03-15 20:50:00,
2013-03-15 15:55:00,33.1,26.4,29.72,East,90,17.0,17.0,76,0.00,,,0.00,meteohub,2013-03-15 20:55:00,
2013-03-15 16:00:00,33.3,26.6,29.72,East,90,15.0,18.0,76,0.00,,,0.00,meteohub,2013-03-15 21:00:00,
2013-03-15 16:06:00,33.4,26.8,29.72,East,90,12.0,18.0,76,0.00,,,0.00,meteohub,2013-03-15 21:06:00,
2013-03-15 16:11:00,33.3,26.6,29.72,NE,45,15.0,18.0,76,0.00,,,0.00,meteohub,2013-03-15 21:11:00,
2013-03-15 16:16:00,33.3,26.6,29.73,East,90,13.0,18.0,76,0.00,,,0.00,meteohub,2013-03-15 21:16:00,
2013-03-15 16:21:00,33.1,26.4,29.73,ENE,68,14.0,18.0,76,0.00,,,0.00,meteohub,2013-03-15 21:21:00,
2013-03-15 16:27:00,33.3,26.6,29.73,East,90,12.0,18.0,76,0.00,,,0.00,meteohub,2013-03-15 21:27:00,
2013-03-15 16:32:00,33.4,26.8,29.72,East,90,13.0,15.0,76,0.00,,,0.00,meteohub,2013-03-15 21:32:00,
2013-03-15 16:37:00,33.3,26.6,29.71,East,90,12.0,15.0,76,0.00,,,0.00,meteohub,2013-03-15 21:37:00,
2013-03-15 16:42:00,33.6,26.8,29.71,NE,45,9.0,15.0,76,0.00,,,0.00,meteohub,2013-03-15 21:42:00,
2013-03-15 16:47:00,33.6,26.8,29.70,East,90,14.0,14.0,76,0.00,,,0.00,meteohub,2013-03-15 21:47:00,
2013-03-15 16:52:00,33.4,26.8,29.70,West,270,13.0,16.0,76,0.00,,,0.00,meteohub,2013-03-15 21:52:00,
2013-03-15 16:58:00,33.3,26.6,29.72,NE,45,11.0,16.0,76,0.00,,,0.00,meteohub,2013-03-15 21:58:00,
2013-03-15 17:03:00,33.1,26.4,29.72,East,90,8.0,16.0,76,0.00,,,0.00,meteohub,2013-03-15 22:03:00,
2013-03-15 17:08:00,33.1,26.4,29.71,East,90,8.0,16.0,76,0.00,,,0.00,meteohub,2013-03-15 22:08:00,
2013-03-15 17:13:00,32.9,26.2,29.72,NE,45,13.0,13.0,76,0.00,,,0.00,meteohub,2013-03-15 22:13:00,
2013-03-15 17:19:00,32.9,26.2,29.70,SE,135,12.0,12.0,76,0.00,,,0.00,meteohub,2013-03-15 22:19:00,
2013-03-15 17:24:00,33.3,26.6,29.70,SSE,158,8.0,13.0,76,0.00,,,0.00,meteohub,2013-03-15 22:24:00,
2013-03-15 17:29:00,33.3,26.6,29.69,SW,225,9.0,13.0,76,0.00,,,0.00,meteohub,2013-03-15 22:29:00,
2013-03-15 17:35:00,33.1,26.4,29.70,NE,45,17.0,17.0,76,0.00,,,0.00,meteohub,2013-03-15 22:35:00,
2013-03-15 17:40:00,32.9,26.2,29.68,East,90,18.0,18.0,76,0.00,,,0.00,meteohub,2013-03-15 22:40:00,
2013-03-15 17:45:00,33.1,26.4,29.68,East,90,13.0,19.0,76,0.00,,,0.00,meteohub,2013-03-15 22:45:00,
2013-03-15 17:50:00,33.1,26.6,29.69,East,90,12.0,19.0,77,0.00,,,0.00,meteohub,2013-03-15 22:50:00,
2013-03-15 17:56:00,32.7,26.2,29.68,East,90,15.0,18.0,77,0.00,,,0.00,meteohub,2013-03-15 22:56:00,
2013-03-15 18:01:00,32.7,26.2,29.68,East,90,13.0,15.0,77,0.00,,,0.00,meteohub,2013-03-15 23:01:00,
2013-03-15 18:06:00,32.5,26.1,29.68,East,90,16.0,16.0,77,0.00,,,0.00,meteohub,2013-03-15 23:06:00,
2013-03-15 18:11:00,32.5,26.1,29.68,SW,225,11.0,16.0,77,0.00,,,0.00,meteohub,2013-03-15 23:11:00,
2013-03-15 18:17:00,32.5,26.1,29.70,East,90,13.0,16.0,77,0.00,,,0.00,meteohub,2013-03-15 23:17:00,
2013-03-15 18:22:00,32.5,26.1,29.70,East,90,12.0,16.0,77,0.00,,,0.00,meteohub,2013-03-15 23:22:00,
2013-03-15 18:27:00,32.4,25.9,29.71,NE,45,11.0,16.0,77,0.00,,,0.00,meteohub,2013-03-15 23:27:00,
2013-03-15 18:32:00,32.4,26.2,29.72,NE,45,12.0,14.0,78,0.00,,,0.00,meteohub,2013-03-15 23:32:00,
2013-03-15 18:37:00,32.4,26.2,29.73,NE,45,10.0,12.0,78,0.00,,,0.00,meteohub,2013-03-15 23:37:00,
2013-03-15 18:43:00,32.4,26.2,29.73,North,0,10.0,12.0,78,0.00,,,0.00,meteohub,2013-03-15 23:43:00,
2013-03-15 18:48:00,32.4,26.2,29.74,North,0,8.0,12.0,78,0.00,,,0.00,meteohub,2013-03-15 23:48:00,
2013-03-15 18:53:00,32.4,26.2,29.73,NE,45,10.0,10.0,78,0.00,,,0.00,meteohub,2013-03-15 23:53:00,
2013-03-15 18:58:00,32.4,26.2,29.73,NE,45,7.0,11.0,78,0.00,,,0.00,meteohub,2013-03-15 23:58:00,
2013-03-15 19:03:00,32.2,26.1,29.73,NNE,23,8.0,11.0,78,0.00,,,0.00,meteohub,2013-03-16 00:03:00,
2013-03-15 19:09:00,32.2,26.1,29.73,NNE,23,6.0,11.0,78,0.00,,,0.00,meteohub,2013-03-16 00:09:00,
2013-03-15 19:14:00,32.2,26.1,29.74,NE,45,8.0,9.0,78,0.00,,,0.00,meteohub,2013-03-16 00:14:00,
2013-03-15 19:19:00,32.2,26.1,29.73,NNE,23,11.0,11.0,78,0.00,,,0.00,meteohub,2013-03-16 00:19:00,
2013-03-15 19:24:00,32.0,25.9,29.73,NE,45,10.0,11.0,78,0.00,,,0.00,meteohub,2013-03-16 00:24:00,
2013-03-15 19:29:00,31.8,26.4,29.72,NE,45,11.0,11.0,80,0.00,,,0.00,meteohub,2013-03-16 00:29:00,
2013-03-15 19:35:00,31.8,26.4,29.73,NE,45,11.0,11.0,80,0.00,,,0.00,meteohub,2013-03-16 00:35:00,
2013-03-15 19:40:00,31.6,26.2,29.73,NE,45,11.0,12.0,80,0.00,,,0.00,meteohub,2013-03-16 00:40:00,
2013-03-15 19:45:00,31.6,26.2,29.73,NE,45,11.0,14.0,80,0.00,,,0.00,meteohub,2013-03-16 00:45:00,
2013-03-15 19:50:00,31.6,26.2,29.72,NE,45,10.0,14.0,80,0.00,,,0.00,meteohub,2013-03-16 00:50:00,
2013-03-15 19:55:00,31.6,26.2,29.72,NE,45,11.0,14.0,80,0.00,,,0.00,meteohub,2013-03-16 00:55:00,
2013-03-15 20:01:00,31.6,26.2,29.73,NE,45,8.0,11.0,80,0.00,,,0.00,meteohub,2013-03-16 01:01:00,
2013-03-15 20:07:00,31.6,26.4,29.75,NE,45,15.0,15.0,81,0.00,,,0.00,meteohub,2013-03-16 01:07:00,
2013-03-15 20:12:00,31.5,26.2,29.75,NNE,23,13.0,15.0,81,0.00,,,0.00,meteohub,2013-03-16 01:12:00,
2013-03-15 20:17:00,31.5,26.2,29.75,NE,45,13.0,15.0,81,0.00,,,0.00,meteohub,2013-03-16 01:17:00,
2013-03-15 20:22:00,31.5,26.2,29.74,NE,45,15.0,15.0,81,0.00,,,0.00,meteohub,2013-03-16 01:22:00,
2013-03-15 20:28:00,31.1,25.9,29.73,NE,45,13.0,15.0,81,0.00,,,0.00,meteohub,2013-03-16 01:28:00,
2013-03-15 20:33:00,31.1,25.9,29.74,NE,45,15.0,15.0,81,0.00,,,0.00,meteohub,2013-03-16 01:33:00,
2013-03-15 20:38:00,30.7,25.5,29.75,NE,45,15.0,17.0,81,0.00,,,0.00,meteohub,2013-03-16 01:38:00,
2013-03-15 20:43:00,30.6,25.3,29.75,NE,45,14.0,17.0,81,0.00,,,0.00,meteohub,2013-03-16 01:43:00,
2013-03-15 20:48:00,30.6,25.3,29.75,NE,45,13.0,17.0,81,0.00,,,0.00,meteohub,2013-03-16 01:48:00,
2013-03-15 20:53:00,30.4,25.3,29.76,NE,45,19.0,19.0,81,0.00,,,0.00,meteohub,2013-03-16 01:53:00,
2013-03-15 20:59:00,30.2,25.2,29.75,NE,45,16.0,20.0,81,0.00,,,0.00,meteohub,2013-03-16 01:59:00,
2013-03-15 21:04:00,30.2,25.2,29.76,NE,45,13.0,20.0,81,0.00,,,0.00,meteohub,2013-03-16 02:04:00,
2013-03-15 21:09:00,30.2,25.2,29.76,NE,45,15.0,20.0,81,0.00,,,0.00,meteohub,2013-03-16 02:09:00,
2013-03-15 21:14:00,29.7,24.8,29.76,NE,45,16.0,17.0,82,0.00,,,0.00,meteohub,2013-03-16 02:14:00,
2013-03-15 21:19:00,29.7,24.8,29.77,NE,45,17.0,21.0,82,0.00,,,0.00,meteohub,2013-03-16 02:19:00,
2013-03-15 21:25:00,29.5,24.6,29.77,NE,45,13.0,21.0,82,0.00,,,0.00,meteohub,2013-03-16 02:25:00,
2013-03-15 21:30:00,29.1,24.3,29.77,NE,45,14.0,21.0,82,0.00,,,0.00,meteohub,2013-03-16 02:30:00,
2013-03-15 21:35:00,28.9,24.1,29.77,NE,45,15.0,18.0,82,0.00,,,0.00,meteohub,2013-03-16 02:35:00,
2013-03-15 21:40:00,28.9,24.1,29.77,NE,45,15.0,17.0,82,0.00,,,0.00,meteohub,2013-03-16 02:40:00,
2013-03-15 21:45:00,28.8,23.9,29.76,NE,45,16.0,16.0,82,0.00,,,0.00,meteohub,2013-03-16 02:45:00,
2013-03-15 21:50:00,28.6,23.7,29.76,NE,45,17.0,17.0,82,0.00,,,0.00,meteohub,2013-03-16 02:50:00,
2013-03-15 21:56:00,28.4,23.5,29.77,NE,45,14.0,17.0,82,0.00,,,0.00,meteohub,2013-03-16 02:56:00,
2013-03-15 22:01:00,28.2,22.3,29.78,NE,45,13.0,17.0,78,0.00,,,0.00,meteohub,2013-03-16 03:01:00,
2013-03-15 22:07:00,28.2,22.3,29.78,NE,45,0.0,17.0,78,0.00,,,0.00,meteohub,2013-03-16 03:07:00,
2013-03-15 22:12:00,28.0,22.1,29.79,NE,45,0.0,17.0,78,0.00,,,0.00,meteohub,2013-03-16 03:12:00,
2013-03-15 22:17:00,28.0,21.7,29.78,NE,45,0.0,17.0,77,0.00,,,0.00,meteohub,2013-03-16 03:17:00,
2013-03-15 22:22:00,27.7,21.4,29.78,NE,45,0.0,14.0,77,0.00,,,0.00,meteohub,2013-03-16 03:22:00,
2013-03-15 22:28:00,27.7,21.4,29.78,NE,45,0.0,0.0,77,0.00,,,0.00,meteohub,2013-03-16 03:28:00,
2013-03-15 22:33:00,27.7,21.4,29.79,NE,45,0.0,0.0,77,0.00,,,0.00,meteohub,2013-03-16 03:33:00,
2013-03-15 22:38:00,27.7,21.4,29.78,NE,45,0.0,0.0,77,0.00,,,0.00,meteohub,2013-03-16 03:38:00,
2013-03-15 22:44:00,27.9,21.6,29.78,NE,45,0.0,0.0,77,0.00,,,0.00,meteohub,2013-03-16 03:44:00,
2013-03-15 22:49:00,27.3,20.8,29.79,NE,45,0.0,0.0,76,0.00,,,0.00,meteohub,2013-03-16 03:49:00,
2013-03-15 22:55:00,27.1,20.7,29.79,NE,45,0.0,0.0,76,0.00,,,0.00,meteohub,2013-03-16 03:55:00,
2013-03-15 23:00:00,26.8,20.3,29.79,NE,45,0.0,0.0,76,0.00,,,0.00,meteohub,2013-03-16 04:00:00,
2013-03-15 23:01:00,26.8,20.3,29.79,NE,45,0.0,0.0,76,0.00,,,0.00,meteohub,2013-03-16 04:01:00,
2013-03-15 23:02:00,26.8,20.3,29.79,NE,45,0.0,0.0,76,0.00,,,0.00,meteohub,2013-03-16 04:02:00,
2013-03-15 23:04:00,26.8,20.3,29.79,NE,45,0.0,0.0,76,0.00,,,0.00,meteohub,2013-03-16 04:04:00,
2013-03-15 23:10:00,26.4,19.9,29.79,NE,45,0.0,0.0,76,0.00,,,0.00,meteohub,2013-03-16 04:10:00,
2013-03-15 23:15:00,26.2,19.8,29.79,NE,45,0.0,0.0,76,0.00,,,0.00,meteohub,2013-03-16 04:15:00,
2013-03-15 23:20:00,26.1,19.6,29.79,NE,45,0.0,0.0,76,0.00,,,0.00,meteohub,2013-03-16 04:20:00,
2013-03-15 23:25:00,26.1,19.6,29.79,NE,45,0.0,0.0,76,0.00,,,0.00,meteohub,2013-03-16 04:25:00,
2013-03-15 23:30:00,26.2,19.8,29.79,NE,45,0.0,0.0,76,0.00,,,0.00,meteohub,2013-03-16 04:30:00,
2013-03-15 23:36:00,26.2,19.8,29.79,NE,45,0.0,0.0,76,0.00,,,0.00,meteohub,2013-03-16 04:36:00,
2013-03-15 23:41:00,26.2,19.8,29.79,NE,45,0.0,0.0,76,0.00,,,0.00,meteohub,2013-03-16 04:41:00,
2013-03-15 23:46:00,26.2,19.4,29.79,NE,45,0.0,0.0,75,0.00,,,0.00,meteohub,2013-03-16 04:46:00,
2013-03-15 23:51:00,25.9,19.0,29.79,NE,45,0.0,0.0,75,0.00,,,0.00,meteohub,2013-03-16 04:51:00,
2013-03-15 23:57:00,25.9,19.0,29.79,NE,45,0.0,0.0,75,0.00,,,0.00,meteohub,2013-03-16 04:57:00,